createdAt,value
2018-10-05T00:00:39.614Z,26.15
2018-10-05T00:03:08.392Z,20.57
2018-10-05T00:05:36.640Z,18.57
2018-10-05T00:08:04.909Z,27.07
2018-10-05T00:10:33.201Z,18.30
2018-10-05T00:13:01.556Z,25.27
2018-10-05T00:15:29.971Z,14.23
2018-10-05T00:17:58.345Z,23.85
2018-10-05T00:20:26.624Z,21.27
2018-10-05T00:22:54.988Z,19.12
2018-10-05T00:25:24.302Z,20.12
2018-10-05T00:27:52.695Z,22.58
2018-10-05T00:30:21.086Z,25.20
2018-10-05T00:32:49.395Z,24.25
2018-10-05T00:35:17.683Z,14.05
2018-10-05T00:37:45.994Z,21.77
2018-10-05T00:40:14.303Z,12.82
2018-10-05T00:42:42.568Z,24.87
2018-10-05T00:45:11.760Z,22.55
2018-10-05T00:47:40.067Z,13.10
2018-10-05T00:50:08.433Z,32.42
2018-10-05T00:52:36.712Z,28.15
2018-10-05T00:55:05.240Z,22.90
2018-10-05T00:57:33.548Z,18.07
2018-10-05T01:00:01.850Z,24.87
2018-10-05T01:02:30.208Z,26.70
2018-10-05T01:04:58.499Z,20.25
2018-10-05T01:07:26.906Z,18.85
2018-10-05T01:09:55.437Z,25.10
2018-10-05T01:12:23.739Z,25.88
2018-10-05T01:14:58.753Z,19.52
2018-10-05T01:17:27.175Z,14.55
2018-10-05T01:19:55.496Z,20.52
2018-10-05T01:22:24.075Z,12.80
2018-10-05T01:24:52.686Z,19.92
2018-10-05T01:27:21.011Z,18.67
2018-10-05T01:29:49.494Z,19.60
2018-10-05T01:32:18.065Z,16.32
2018-10-05T01:34:46.352Z,21.87
2018-10-05T01:37:14.681Z,21.65
2018-10-05T01:39:42.997Z,27.17
2018-10-05T01:42:11.473Z,20.52
2018-10-05T01:44:39.842Z,31.10
2018-10-05T01:47:08.257Z,24.32
2018-10-05T01:49:36.576Z,17.15
2018-10-05T01:52:04.980Z,19.23
2018-10-05T01:54:33.280Z,18.80
2018-10-05T01:57:01.655Z,22.48
2018-10-05T01:59:29.951Z,21.75
2018-10-05T02:01:58.312Z,24.40
2018-10-05T02:04:26.650Z,24.32
2018-10-05T02:06:55.002Z,24.02
2018-10-05T02:09:23.316Z,17.92
2018-10-05T02:11:51.603Z,19.65
2018-10-05T02:14:20.047Z,16.90
2018-10-05T02:16:48.400Z,22.65
2018-10-05T02:19:16.936Z,32.73
2018-10-05T02:21:45.340Z,16.48
2018-10-05T02:24:13.682Z,27.75
2018-10-05T02:26:42.064Z,17.30
2018-10-05T02:29:10.381Z,21.65
2018-10-05T02:31:38.709Z,26.97
2018-10-05T02:34:07.172Z,24.72
2018-10-05T02:36:35.644Z,23.92
2018-10-05T02:39:05.088Z,26.75
2018-10-05T02:41:33.506Z,27.95
2018-10-05T02:44:01.774Z,19.85
2018-10-05T02:46:30.196Z,34.92
2018-10-05T02:48:58.750Z,18.50
2018-10-05T02:51:27.092Z,15.93
2018-10-05T02:53:55.384Z,23.92
2018-10-05T02:56:24.072Z,29.12
2018-10-05T02:58:52.379Z,16.85
2018-10-05T03:01:32.092Z,27.62
2018-10-05T03:04:00.420Z,30.75
2018-10-05T03:06:28.931Z,25.10
2018-10-05T03:08:57.193Z,21.45
2018-10-05T03:11:25.681Z,19.62
2018-10-05T03:13:54.018Z,24.92
2018-10-05T03:16:22.377Z,16.07
2018-10-05T03:18:50.811Z,24.47
2018-10-05T03:21:19.183Z,21.33
2018-10-05T03:23:48.355Z,22.67
2018-10-05T03:26:16.666Z,17.27
2018-10-05T03:28:44.993Z,19.82
2018-10-05T03:31:13.385Z,26.20
2018-10-05T03:33:41.710Z,18.67
2018-10-05T03:36:10.039Z,21.35
2018-10-05T03:38:38.387Z,21.33
2018-10-05T03:41:06.785Z,25.08
2018-10-05T03:43:35.069Z,21.85
2018-10-05T03:46:03.442Z,22.90
2018-10-05T03:48:31.770Z,22.70
2018-10-05T03:51:00.211Z,20.62
2018-10-05T03:53:28.511Z,24.27
2018-10-05T03:55:56.870Z,23.18
2018-10-05T03:58:25.269Z,18.85
2018-10-05T04:00:53.676Z,17.48
2018-10-05T04:03:21.900Z,34.50
2018-10-05T04:05:50.289Z,32.93
2018-10-05T04:08:18.577Z,21.00
2018-10-05T04:10:46.889Z,23.45
2018-10-05T04:13:15.235Z,29.18
2018-10-05T04:15:43.498Z,20.95
2018-10-05T04:18:11.872Z,22.58
2018-10-05T04:20:40.209Z,25.48
2018-10-05T04:23:08.665Z,16.23
2018-10-05T04:25:36.953Z,23.92
2018-10-05T04:28:05.357Z,23.77
2018-10-05T04:30:33.776Z,41.73
2018-10-05T04:33:02.059Z,32.20
2018-10-05T04:35:30.457Z,17.15
2018-10-05T04:37:58.709Z,27.87
2018-10-05T04:40:27.061Z,28.60
2018-10-05T04:42:55.380Z,18.57
2018-10-05T04:45:23.844Z,30.25
2018-10-05T04:47:52.240Z,17.25
2018-10-05T04:50:21.221Z,26.30
2018-10-05T04:52:49.689Z,20.37
2018-10-05T04:55:18.172Z,28.77
2018-10-05T04:57:46.690Z,20.48
2018-10-05T05:00:15.121Z,20.57
2018-10-05T05:02:43.413Z,31.23
2018-10-05T05:05:11.702Z,19.35
2018-10-05T05:07:40.197Z,24.47
2018-10-05T05:10:08.644Z,19.42
2018-10-05T05:12:36.984Z,28.98
2018-10-05T05:15:06.210Z,18.85
2018-10-05T05:17:34.743Z,26.27
2018-10-05T05:20:03.201Z,33.58
2018-10-05T05:22:31.663Z,32.88
2018-10-05T05:24:59.977Z,34.80
2018-10-05T05:27:28.395Z,34.18
2018-10-05T05:29:56.828Z,36.40
2018-10-05T05:32:25.208Z,28.62
2018-10-05T05:34:53.502Z,23.60
2018-10-05T05:37:21.852Z,28.30
2018-10-05T05:39:50.417Z,28.77
2018-10-05T05:42:18.740Z,32.75
2018-10-05T05:44:47.514Z,23.85
2018-10-05T05:47:15.798Z,28.30
2018-10-05T05:49:44.072Z,32.48
2018-10-05T05:52:12.414Z,32.13
2018-10-05T05:54:40.718Z,22.80
2018-10-05T05:57:09.205Z,22.82
2018-10-05T05:59:37.482Z,33.58
2018-10-05T06:02:05.967Z,37.08
2018-10-05T06:04:34.550Z,35.38
2018-10-05T06:07:02.977Z,37.42
2018-10-05T06:09:31.580Z,22.60
2018-10-05T06:12:00.147Z,31.82
2018-10-05T06:14:28.451Z,22.22
2018-10-05T06:16:56.809Z,22.25
2018-10-05T06:19:25.340Z,22.35
2018-10-05T06:21:53.945Z,23.60
2018-10-05T06:24:22.242Z,23.25
2018-10-05T06:26:50.653Z,20.08
2018-10-05T06:29:19.042Z,26.05
2018-10-05T06:31:47.347Z,18.12
2018-10-05T06:34:15.734Z,22.67
2018-10-05T06:36:44.240Z,26.60
2018-10-05T06:39:12.755Z,26.23
2018-10-05T06:41:41.288Z,31.30
2018-10-05T06:44:09.622Z,25.60
2018-10-05T06:46:38.269Z,37.38
2018-10-05T06:49:06.780Z,33.75
2018-10-05T06:51:35.207Z,29.25
2018-10-05T06:54:03.547Z,29.72
2018-10-05T06:56:31.956Z,31.40
2018-10-05T06:59:00.376Z,24.45
2018-10-05T07:01:29.317Z,27.73
2018-10-05T07:03:57.657Z,27.37
2018-10-05T07:06:26.006Z,31.70
2018-10-05T07:08:54.862Z,29.00
2018-10-05T07:11:24.196Z,24.10
2018-10-05T07:13:52.583Z,37.58
2018-10-05T07:16:21.076Z,41.08
2018-10-05T07:18:49.393Z,27.87
2018-10-05T07:21:17.863Z,25.60
2018-10-05T07:23:46.048Z,30.85
2018-10-05T07:26:14.393Z,33.25
2018-10-05T07:28:42.802Z,27.00
2018-10-05T07:31:10.968Z,27.57
2018-10-05T07:33:39.220Z,20.70
2018-10-05T07:36:07.720Z,36.17
2018-10-05T07:38:36.040Z,33.35
2018-10-05T07:41:04.328Z,26.87
2018-10-05T07:43:32.635Z,27.67
2018-10-05T07:46:00.917Z,31.53
2018-10-05T07:48:29.266Z,39.63
2018-10-05T07:50:57.633Z,43.27
2018-10-05T07:53:25.932Z,36.63
2018-10-05T07:55:54.278Z,27.43
2018-10-05T07:58:22.590Z,29.00
2018-10-05T08:00:51.617Z,40.20
2018-10-05T08:03:19.981Z,27.70
2018-10-05T08:05:48.284Z,27.53
2018-10-05T08:08:16.587Z,22.67
2018-10-05T08:10:44.943Z,32.40
2018-10-05T08:13:13.256Z,24.40
2018-10-05T08:15:41.569Z,30.87
2018-10-05T08:18:09.870Z,28.27
2018-10-05T08:20:38.168Z,37.50
2018-10-05T08:23:06.679Z,30.03
2018-10-05T08:25:35.057Z,29.60
2018-10-05T08:28:03.350Z,29.60
2018-10-05T08:30:31.892Z,25.00
2018-10-05T08:33:00.233Z,25.73
2018-10-05T08:35:28.729Z,27.33
2018-10-05T08:37:57.298Z,21.33
2018-10-05T08:40:26.026Z,43.30
2018-10-05T08:42:54.437Z,23.47
2018-10-05T08:45:22.762Z,26.10
2018-10-05T08:47:51.221Z,26.60
2018-10-05T08:50:19.574Z,31.70
2018-10-05T08:52:48.080Z,27.43
2018-10-05T08:55:16.396Z,23.67
2018-10-05T08:57:44.702Z,29.90
2018-10-05T09:00:13.074Z,30.63
2018-10-05T09:02:41.537Z,29.57
2018-10-05T09:05:09.829Z,27.43
2018-10-05T09:07:38.212Z,30.47
2018-10-05T09:10:06.898Z,24.30
2018-10-05T09:12:35.187Z,25.90
2018-10-05T09:15:03.496Z,27.77
2018-10-05T09:17:31.769Z,34.00
2018-10-05T09:20:00.293Z,30.23
2018-10-05T09:22:28.734Z,25.10
2018-10-05T09:24:57.088Z,24.70
2018-10-05T09:27:25.632Z,33.80
2018-10-05T09:29:54.104Z,27.47
2018-10-05T09:32:22.471Z,34.40
2018-10-05T09:34:50.864Z,26.10
2018-10-05T09:37:19.324Z,29.17
2018-10-05T09:39:47.610Z,29.83
2018-10-05T09:42:15.927Z,22.10
2018-10-05T09:44:44.427Z,29.17
2018-10-05T09:47:12.713Z,27.57
2018-10-05T09:49:41.038Z,26.80
2018-10-05T09:52:09.401Z,25.07
2018-10-05T09:54:37.641Z,27.93
2018-10-05T09:57:05.949Z,22.43
2018-10-05T09:59:34.249Z,27.47
2018-10-05T10:02:07.909Z,27.40
2018-10-05T10:04:36.244Z,23.27
2018-10-05T10:07:04.931Z,29.13
2018-10-05T10:09:33.285Z,25.73
2018-10-05T10:12:01.720Z,25.00
2018-10-05T10:14:29.997Z,21.87
2018-10-05T10:16:58.287Z,22.63
2018-10-05T10:19:26.605Z,22.00
2018-10-05T10:21:55.163Z,20.00
2018-10-05T10:24:23.519Z,26.40
2018-10-05T10:26:51.906Z,22.97
2018-10-05T10:29:20.329Z,23.10
2018-10-05T10:31:48.660Z,22.50
2018-10-05T10:34:17.758Z,19.40
2018-10-05T10:36:46.167Z,28.60
2018-10-05T10:39:14.513Z,20.80
2018-10-05T10:41:42.850Z,23.30
2018-10-05T10:44:11.092Z,34.20
2018-10-05T10:46:39.538Z,19.00
2018-10-05T10:49:08.186Z,22.47
2018-10-05T10:51:36.456Z,22.60
2018-10-05T10:54:04.843Z,18.10
2018-10-05T10:56:33.262Z,21.40
2018-10-05T10:59:01.572Z,18.03
2018-10-05T11:01:30.670Z,19.20
2018-10-05T11:03:59.095Z,14.60
2018-10-05T11:06:27.411Z,16.93
2018-10-05T11:08:55.769Z,16.30
2018-10-05T11:11:24.084Z,24.00
2018-10-05T11:13:52.536Z,25.27
2018-10-05T11:16:20.886Z,15.73
2018-10-05T11:18:49.227Z,18.33
2018-10-05T11:21:17.635Z,16.83
2018-10-05T11:23:45.953Z,14.93
2018-10-05T11:26:14.349Z,20.13
2018-10-05T11:28:42.742Z,17.50
2018-10-05T11:31:11.091Z,20.17
2018-10-05T11:33:39.447Z,19.37
2018-10-05T11:36:07.832Z,17.10
2018-10-05T11:38:36.091Z,17.97
2018-10-05T11:41:04.855Z,20.40
2018-10-05T11:43:33.231Z,18.80
2018-10-05T11:46:01.548Z,19.00
2018-10-05T11:48:29.869Z,16.27
2018-10-05T11:50:58.193Z,15.50
2018-10-05T11:53:26.713Z,15.00
2018-10-05T11:55:55.011Z,26.83
2018-10-05T11:58:44.085Z,15.80
2018-10-05T12:01:13.062Z,17.30
2018-10-05T12:03:41.450Z,16.53
2018-10-05T12:06:09.781Z,15.63
2018-10-05T12:08:38.075Z,13.77
2018-10-05T12:11:06.404Z,34.17
2018-10-05T12:13:34.821Z,13.60
2018-10-05T12:16:03.128Z,14.50
2018-10-05T12:18:32.406Z,14.40
2018-10-05T12:21:00.759Z,19.63
2018-10-05T12:23:29.043Z,11.63
2018-10-05T12:25:57.342Z,12.87
2018-10-05T12:28:25.674Z,14.17
2018-10-05T12:30:54.066Z,10.70
2018-10-05T12:33:22.446Z,11.93
2018-10-05T12:35:50.937Z,14.70
2018-10-05T12:38:19.284Z,9.93
2018-10-05T12:40:47.733Z,10.77
2018-10-05T12:43:16.039Z,12.57
2018-10-05T12:45:44.454Z,11.07
2018-10-05T12:48:12.732Z,9.90
2018-10-05T12:50:41.058Z,8.00
2018-10-05T12:53:09.342Z,7.17
2018-10-05T12:55:37.661Z,9.40
2018-10-05T12:58:06.026Z,9.40
2018-10-05T13:00:34.339Z,11.13
2018-10-05T13:03:02.642Z,11.77
2018-10-05T13:05:31.041Z,11.93
2018-10-05T13:07:59.361Z,8.43
2018-10-05T13:10:27.663Z,8.43
2018-10-05T13:12:56.122Z,7.57
2018-10-05T13:15:24.507Z,10.60
2018-10-05T13:17:52.839Z,10.33
2018-10-05T13:20:21.112Z,6.73
2018-10-05T13:22:49.388Z,7.30
2018-10-05T13:25:17.682Z,6.07
2018-10-05T13:27:45.984Z,6.13
2018-10-05T13:30:14.259Z,4.60
2018-10-05T13:32:42.549Z,8.07
2018-10-05T13:35:10.995Z,4.77
2018-10-05T13:37:39.286Z,5.27
2018-10-05T13:40:07.601Z,5.90
2018-10-05T13:42:35.864Z,5.47
2018-10-05T13:45:04.241Z,4.23
2018-10-05T13:47:32.510Z,4.27
2018-10-05T13:50:00.787Z,3.80
2018-10-05T13:52:29.188Z,4.17
2018-10-05T13:54:57.431Z,4.97
2018-10-05T13:57:25.982Z,8.47
2018-10-05T13:59:54.273Z,5.67
2018-10-05T14:02:22.648Z,3.40
2018-10-05T14:04:50.957Z,3.77
2018-10-05T14:07:19.324Z,9.17
2018-10-05T14:09:47.789Z,4.17
2018-10-05T14:12:16.092Z,2.77
2018-10-05T14:14:44.532Z,3.13
2018-10-05T14:17:12.891Z,2.57
2018-10-05T14:19:41.133Z,2.03
2018-10-05T14:22:09.475Z,4.30
2018-10-05T14:24:37.740Z,4.13
2018-10-05T14:27:06.071Z,5.80
2018-10-05T14:29:34.520Z,3.93
2018-10-05T14:32:02.824Z,3.40
2018-10-05T14:34:31.155Z,3.83
2018-10-05T14:36:59.482Z,3.40
2018-10-05T14:39:27.832Z,4.30
2018-10-05T14:41:56.180Z,3.50
2018-10-05T14:44:24.528Z,3.57
2018-10-05T14:46:52.825Z,3.90
2018-10-05T14:49:21.158Z,3.30
2018-10-05T14:51:49.387Z,3.37
2018-10-05T14:54:17.847Z,3.37
2018-10-05T14:56:46.096Z,6.60
2018-10-05T14:59:14.388Z,7.50
2018-10-05T15:01:42.743Z,4.23
2018-10-05T15:04:11.040Z,3.43
2018-10-05T15:06:39.446Z,3.63
2018-10-05T15:09:07.823Z,3.57
2018-10-05T15:11:36.110Z,3.40
2018-10-05T15:14:04.430Z,2.83
2018-10-05T15:16:32.732Z,3.27
2018-10-05T15:19:01.148Z,3.33
2018-10-05T15:21:29.567Z,8.93
2018-10-05T15:23:58.006Z,3.57
2018-10-05T15:26:26.326Z,3.67
2018-10-05T15:28:54.588Z,2.87
2018-10-05T15:31:23.085Z,7.00
2018-10-05T15:33:51.372Z,3.90
2018-10-05T15:36:19.619Z,3.20
2018-10-05T15:38:48.223Z,3.60
2018-10-05T15:41:16.471Z,4.10
2018-10-05T15:43:44.891Z,7.17
2018-10-05T15:46:23.198Z,6.30
2018-10-05T15:48:51.582Z,6.17
2018-10-05T15:51:19.836Z,7.10
2018-10-05T15:53:48.096Z,9.57
2018-10-05T15:56:16.423Z,6.73
2018-10-05T15:58:44.700Z,6.17
2018-10-05T16:01:13.094Z,3.37
2018-10-05T16:03:41.456Z,9.67
2018-10-05T16:06:09.755Z,11.57
2018-10-05T16:08:38.118Z,7.73
2018-10-05T16:11:06.431Z,4.23
2018-10-05T16:13:34.732Z,10.47
2018-10-05T16:16:02.997Z,3.93
2018-10-05T16:18:31.306Z,3.90
2018-10-05T16:20:59.624Z,7.87
2018-10-05T16:23:27.930Z,4.13
2018-10-05T16:25:56.272Z,7.40
2018-10-05T16:28:24.573Z,6.57
2018-10-05T16:30:52.909Z,4.97
2018-10-05T16:33:21.328Z,4.70
2018-10-05T16:35:49.781Z,5.83
2018-10-05T16:38:18.066Z,3.50
2018-10-05T16:40:46.337Z,4.27
2018-10-05T16:43:14.666Z,6.07
2018-10-05T16:45:42.945Z,6.80
2018-10-05T16:48:11.272Z,15.30
2018-10-05T16:50:39.585Z,12.03
2018-10-05T16:53:07.866Z,4.50
2018-10-05T16:55:36.209Z,7.33
2018-10-05T16:58:04.540Z,5.00
2018-10-05T17:00:32.835Z,9.30
2018-10-05T17:03:01.112Z,4.73
2018-10-05T17:05:29.384Z,7.10
2018-10-05T17:07:58.270Z,12.53
2018-10-05T17:10:26.747Z,7.93
2018-10-05T17:12:55.065Z,5.10
2018-10-05T17:15:23.566Z,9.00
2018-10-05T17:17:51.833Z,10.50
2018-10-05T17:20:20.149Z,11.23
2018-10-05T17:22:48.577Z,6.57
2018-10-05T17:25:16.921Z,5.83
2018-10-05T17:27:45.206Z,9.93
2018-10-05T17:30:13.567Z,5.33
2018-10-05T17:32:41.932Z,14.93
2018-10-05T17:35:10.291Z,9.87
2018-10-05T17:37:38.558Z,12.37
2018-10-05T17:40:07.589Z,10.03
2018-10-05T17:42:35.978Z,14.87
2018-10-05T17:45:04.415Z,12.03
2018-10-05T17:47:32.668Z,13.43
2018-10-05T17:50:00.964Z,12.43
2018-10-05T17:52:29.271Z,16.03
2018-10-05T17:54:57.641Z,13.57
2018-10-05T17:57:25.962Z,15.20
2018-10-05T17:59:54.299Z,17.40
2018-10-05T18:02:22.774Z,15.37
2018-10-05T18:04:51.084Z,13.53
2018-10-05T18:07:19.364Z,18.23
2018-10-05T18:09:47.823Z,18.67
2018-10-05T18:12:16.151Z,10.80
2018-10-05T18:14:44.539Z,13.03
2018-10-05T18:17:12.846Z,12.67
2018-10-05T18:19:41.093Z,9.07
2018-10-05T18:22:09.611Z,10.53
2018-10-05T18:24:37.920Z,11.40
2018-10-05T18:27:06.465Z,10.93
2018-10-05T18:29:35.047Z,24.07
2018-10-05T18:32:03.382Z,16.20
2018-10-05T18:34:31.649Z,14.23
2018-10-05T18:37:00.046Z,12.50
2018-10-05T18:39:28.348Z,9.57
2018-10-05T18:41:56.637Z,13.10
2018-10-05T18:44:24.952Z,11.60
2018-10-05T18:46:53.586Z,14.63
2018-10-05T18:49:21.916Z,13.30
2018-10-05T18:51:50.208Z,11.50
2018-10-05T18:54:18.681Z,9.93
2018-10-05T18:56:58.199Z,9.93
2018-10-05T18:59:26.550Z,11.57
2018-10-05T19:01:54.861Z,15.20
2018-10-05T19:04:23.130Z,11.60
2018-10-05T19:06:51.533Z,12.53
2018-10-05T19:09:19.950Z,16.60
2018-10-05T19:11:48.264Z,13.17
2018-10-05T19:14:16.531Z,56.77
2018-10-05T19:16:44.827Z,27.73
2018-10-05T19:19:13.217Z,18.30
2018-10-05T19:21:41.594Z,14.57
2018-10-05T19:24:09.947Z,16.60
2018-10-05T19:26:39.189Z,13.83
2018-10-05T19:29:07.516Z,13.63
2018-10-05T19:31:35.785Z,10.20
2018-10-05T19:34:04.177Z,12.37
2018-10-05T19:36:39.049Z,14.57
2018-10-05T19:39:09.777Z,13.63
2018-10-05T19:41:38.796Z,14.63
2018-10-05T19:44:07.605Z,15.40
2018-10-05T19:46:36.359Z,14.90
2018-10-05T19:49:04.693Z,15.70
2018-10-05T19:51:33.006Z,13.37
2018-10-05T19:54:01.279Z,13.23
2018-10-05T19:56:29.718Z,11.17
2018-10-05T19:58:58.014Z,12.80
2018-10-05T20:01:26.284Z,13.07
2018-10-05T20:03:54.691Z,16.50
2018-10-05T20:06:23.328Z,17.67
2018-10-05T20:08:51.700Z,17.00
2018-10-05T20:11:20.120Z,14.00
2018-10-05T20:13:48.405Z,14.97
2018-10-05T20:16:16.730Z,14.43
2018-10-05T20:18:45.049Z,17.33
2018-10-05T20:21:13.405Z,19.93
2018-10-05T20:23:41.668Z,16.30
2018-10-05T20:26:09.975Z,21.60
2018-10-05T20:28:38.341Z,14.40
2018-10-05T20:31:06.663Z,24.10
2018-10-05T20:33:35.086Z,14.47
2018-10-05T20:36:03.729Z,12.57
2018-10-05T20:38:31.918Z,16.50
2018-10-05T20:41:00.280Z,20.90
2018-10-05T20:43:28.585Z,17.97
2018-10-05T20:45:56.880Z,19.20
2018-10-05T20:48:25.213Z,13.60
2018-10-05T20:50:53.506Z,20.67
2018-10-05T20:53:21.793Z,16.27
2018-10-05T20:55:50.107Z,12.87
2018-10-05T20:58:18.474Z,15.70
2018-10-05T21:00:46.759Z,21.63
2018-10-05T21:03:15.036Z,16.13
2018-10-05T21:05:43.335Z,14.20
2018-10-05T21:08:11.626Z,19.37
2018-10-05T21:10:39.977Z,20.87
2018-10-05T21:13:08.288Z,13.63
2018-10-05T21:15:36.616Z,14.67
2018-10-05T21:18:04.938Z,16.63
2018-10-05T21:20:33.229Z,18.47
2018-10-05T21:23:01.493Z,17.13
2018-10-05T21:25:29.829Z,14.67
2018-10-05T21:27:58.183Z,20.30
2018-10-05T21:30:26.428Z,16.30
2018-10-05T21:32:54.977Z,22.70
2018-10-05T21:35:23.173Z,18.23
2018-10-05T21:37:51.981Z,18.33
2018-10-05T21:40:20.292Z,17.13
2018-10-05T21:42:48.598Z,15.83
2018-10-05T21:45:16.841Z,18.60
2018-10-05T21:47:45.166Z,14.37
2018-10-05T21:50:13.528Z,16.37
2018-10-05T21:52:41.816Z,17.73
2018-10-05T21:55:10.314Z,17.67
2018-10-05T21:57:38.725Z,15.83
2018-10-05T22:00:07.513Z,16.20
2018-10-05T22:02:36.725Z,19.33
2018-10-05T22:05:06.407Z,19.93
2018-10-05T22:07:34.966Z,14.73
2018-10-05T22:10:03.409Z,14.80
2018-10-05T22:12:32.073Z,13.93
2018-10-05T22:15:00.378Z,14.50
2018-10-05T22:17:28.984Z,16.53
2018-10-05T22:19:57.341Z,12.67
2018-10-05T22:22:25.762Z,16.73
2018-10-05T22:24:54.130Z,18.13
2018-10-05T22:27:22.434Z,16.57
2018-10-05T22:29:50.728Z,19.63
2018-10-05T22:32:18.996Z,14.23
2018-10-05T22:34:47.384Z,17.07
2018-10-05T22:37:15.708Z,16.10
2018-10-05T22:39:43.994Z,18.93
2018-10-05T22:42:12.439Z,14.50
2018-10-05T22:44:40.720Z,21.20
2018-10-05T22:47:09.020Z,17.40
2018-10-05T22:49:37.388Z,18.10
2018-10-05T22:52:05.816Z,27.00
2018-10-05T22:54:34.102Z,18.50
2018-10-05T22:57:02.377Z,14.93
2018-10-05T22:59:30.957Z,19.53
2018-10-05T23:02:00.291Z,21.17
2018-10-05T23:04:28.758Z,18.13
2018-10-05T23:06:57.099Z,19.03
2018-10-05T23:09:25.448Z,18.10
2018-10-05T23:11:53.823Z,19.27
2018-10-05T23:14:22.256Z,15.97
2018-10-05T23:16:50.593Z,16.77
2018-10-05T23:19:19.013Z,18.63
2018-10-05T23:21:47.375Z,17.30
2018-10-05T23:24:15.724Z,14.83
2018-10-05T23:26:44.095Z,17.80
2018-10-05T23:29:12.393Z,15.47
2018-10-05T23:31:40.753Z,20.03
2018-10-05T23:34:09.064Z,17.93
2018-10-05T23:36:37.330Z,17.07
2018-10-05T23:39:07.833Z,16.83
2018-10-05T23:41:36.233Z,22.93
2018-10-05T23:44:04.715Z,19.13
2018-10-05T23:46:33.103Z,17.37
2018-10-05T23:49:01.370Z,21.40
2018-10-05T23:51:29.725Z,20.30
2018-10-05T23:53:58.138Z,19.30
2018-10-05T23:56:26.502Z,16.37
2018-10-05T23:58:54.824Z,20.40
